Time;durP1;ratioP1;P1;durP2;ratioP2;P2;SDS_P1;SDS_P2;PMS_P1;PMS_P2;Temp;Humidity;BMP_temperature;BMP_pressure;BME280_temperature;BME280_humidity;BME280_pressure;Samples;Min_cycle;Max_cycle;Signal;HPM_P1;HPM_P2
2023/09/20 00:01:53;;;;;;;5.72;2.10;;;;;;;16.67;76.78;100663.75;5029061;28;20113;-78
2023/09/20 00:04:19;;;;;;;5.03;2.30;;;;;;;16.73;75.93;100662.78;5032590;28;20033;-78
2023/09/20 00:06:46;;;;;;;4.75;2.00;;;;;;;16.72;76.38;100665.72;5013373;28;20083;-79
2023/09/20 00:09:12;;;;;;;6.68;2.33;;;;;;;16.74;76.22;100669.03;5039403;22;20416;-77
2023/09/20 00:11:37;;;;;;;3.65;2.15;;;;;;;16.77;76.17;100663.13;5016201;28;20438;-78
2023/09/20 00:14:05;;;;;;;6.25;2.22;;;;;;;16.76;76.21;100673.19;5007415;28;20026;-78
2023/09/20 00:16:33;;;;;;;7.50;2.13;;;;;;;16.76;76.31;100664.19;5008822;28;20045;-78
2023/09/20 00:18:58;;;;;;;3.70;1.90;;;;;;;16.82;76.22;100669.47;5017681;28;20029;-77
2023/09/20 00:21:23;;;;;;;7.25;2.13;;;;;;;16.83;75.92;100671.13;5019494;28;20018;-78
2023/09/20 00:23:49;;;;;;;6.22;2.30;;;;;;;16.86;76.01;100666.25;5020631;28;20030;-77
2023/09/20 00:26:17;;;;;;;5.30;2.08;;;;;;;16.87;75.74;100667.91;5014939;28;20049;-78
2023/09/20 00:28:46;;;;;;;7.88;2.28;;;;;;;16.89;75.94;100669.31;5014174;28;20075;-77
2023/09/20 00:31:12;;;;;;;9.65;2.50;;;;;;;16.89;75.82;100671.22;5024000;28;20041;-78
2023/09/20 00:33:39;;;;;;;5.90;2.10;;;;;;;16.83;76.07;100673.84;5118672;22;20642;-78
2023/09/20 00:36:05;;;;;;;4.93;2.50;;;;;;;16.87;75.88;100670.63;5024786;28;20193;-78
2023/09/20 00:38:34;;;;;;;4.93;2.17;;;;;;;16.81;76.30;100656.13;5017218;28;20050;-78
2023/09/20 00:41:03;;;;;;;3.63;2.25;;;;;;;16.85;76.02;100664.63;5023276;28;20029;-78
2023/09/20 00:43:29;;;;;;;5.13;2.17;;;;;;;16.86;76.08;100652.66;5009876;28;20105;-78
2023/09/20 00:45:56;;;;;;;4.95;2.33;;;;;;;16.88;76.19;100662.22;5016537;28;20037;-78
2023/09/20 00:48:22;;;;;;;5.43;2.03;;;;;;;16.84;76.16;100658.38;5000365;28;20021;-77
2023/09/20 00:50:51;;;;;;;6.65;2.40;;;;;;;16.88;76.14;100658.69;4979208;28;20029;-77
2023/09/20 00:53:17;;;;;;;5.03;2.13;;;;;;;16.85;76.55;100651.00;4998936;28;20153;-78
2023/09/20 00:55:42;;;;;;;5.35;2.30;;;;;;;16.84;76.39;100655.66;5006920;28;20029;-78
2023/09/20 00:58:10;;;;;;;4.70;2.50;;;;;;;16.79;76.73;100653.63;4994819;28;20034;-78
2023/09/20 01:00:38;;;;;;;5.43;2.20;;;;;;;16.82;77.01;100653.16;5002360;28;20474;-78
2023/09/20 01:03:03;;;;;;;5.57;2.15;;;;;;;16.80;76.72;100652.56;4984214;28;20045;-78
2023/09/20 01:05:34;;;;;;;7.07;2.40;;;;;;;16.82;76.72;100655.88;5004862;23;20034;-78
2023/09/20 01:08:00;;;;;;;5.63;2.30;;;;;;;16.79;76.77;100652.81;5059969;28;20107;-78
2023/09/20 01:10:25;;;;;;;4.60;1.98;;;;;;;16.78;76.75;100651.97;5068758;28;20033;-78
2023/09/20 01:12:53;;;;;;;4.30;2.17;;;;;;;16.82;76.71;100650.44;5066382;28;20028;-78
2023/09/20 01:15:21;;;;;;;5.50;2.10;;;;;;;16.82;76.76;100650.44;5071019;28;20035;-78
2023/09/20 01:17:49;;;;;;;7.15;2.40;;;;;;;16.86;76.99;100655.38;5089940;28;20104;-78
2023/09/20 01:20:15;;;;;;;5.05;2.10;;;;;;;16.79;77.13;100655.53;5078445;28;20041;-78
2023/09/20 01:22:41;;;;;;;6.97;2.40;;;;;;;16.81;76.98;100642.53;5066100;28;20036;-78
2023/09/20 01:25:11;;;;;;;3.80;2.08;;;;;;;16.87;76.95;100662.47;5070210;28;20045;-78
2023/09/20 01:27:37;;;;;;;6.13;2.33;;;;;;;16.86;76.83;100656.19;5031783;28;20115;-77
2023/09/20 01:30:03;;;;;;;8.23;2.63;;;;;;;16.74;77.31;100656.28;5036162;28;20465;-78
2023/09/20 01:32:29;;;;;;;6.35;2.50;;;;;;;16.83;76.76;100643.94;5065785;28;20098;-78
2023/09/20 01:34:55;;;;;;;6.60;2.35;;;;;;;16.78;77.08;100654.69;5067355;28;20044;-78
2023/09/20 01:37:21;;;;;;;4.43;2.40;;;;;;;16.64;77.60;100650.63;5068245;28;20073;-78
2023/09/20 01:39:46;;;;;;;5.90;2.05;;;;;;;16.57;78.16;100652.69;5068546;28;20082;-78
2023/09/20 01:42:15;;;;;;;6.80;2.22;;;;;;;16.49;78.55;100649.28;5066786;28;20521;-78
2023/09/20 01:44:41;;;;;;;5.28;2.05;;;;;;;16.42;78.78;100661.34;5071411;28;20031;-78
2023/09/20 01:47:07;;;;;;;6.53;2.33;;;;;;;16.31;79.13;100649.44;5068475;28;20033;-79
2023/09/20 01:49:34;;;;;;;6.72;2.35;;;;;;;16.25;79.71;100653.09;5070032;28;20119;-78
2023/09/20 01:52:00;;;;;;;7.20;2.25;;;;;;;16.20;79.82;100648.41;5035770;28;20032;-78
2023/09/20 01:54:28;;;;;;;5.15;2.20;;;;;;;16.15;80.33;100651.84;5064785;28;20024;-78
2023/09/20 01:56:55;;;;;;;6.45;2.60;;;;;;;16.09;80.48;100641.94;5067464;28;20025;-78
2023/09/20 01:59:21;;;;;;;10.85;2.40;;;;;;;16.01;80.91;100643.13;5068869;28;20804;-77
2023/09/20 02:01:50;;;;;;;6.90;2.50;;;;;;;16.00;80.95;100643.38;5068138;28;20051;-77
2023/09/20 02:04:15;;;;;;;4.82;2.30;;;;;;;15.96;81.36;100636.75;5070242;28;20383;-78
2023/09/20 02:06:41;;;;;;;7.13;2.53;;;;;;;15.93;81.46;100634.53;5064415;28;20044;-77
2023/09/20 02:09:08;;;;;;;8.35;2.53;;;;;;;15.89;81.60;100628.75;5070770;28;20047;-77
2023/09/20 02:11:33;;;;;;;2.90;2.00;;;;;;;15.85;82.21;100625.69;5066287;28;20025;-77
2023/09/20 02:14:00;;;;;;;3.50;2.10;;;;;;;15.82;82.30;100641.56;5071409;28;20097;-77
2023/09/20 02:16:25;;;;;;;5.43;2.20;;;;;;;15.75;82.47;100639.81;5067372;28;20090;-77
2023/09/20 02:18:52;;;;;;;4.35;2.08;;;;;;;15.74;82.92;100629.19;5063965;28;20464;-78
2023/09/20 02:21:21;;;;;;;4.25;2.20;;;;;;;15.69;82.98;100627.19;5071034;28;20151;-78
2023/09/20 02:23:46;;;;;;;7.75;2.45;;;;;;;15.67;83.38;100623.06;5069210;28;20544;-78
2023/09/20 02:26:12;;;;;;;8.25;2.30;;;;;;;15.63;83.57;100617.28;5068437;28;20032;-77
2023/09/20 02:28:40;;;;;;;5.43;2.20;;;;;;;15.58;83.81;100609.84;5069530;28;20272;-77
2023/09/20 02:31:07;;;;;;;6.35;2.33;;;;;;;15.52;84.39;100612.69;5052097;28;20032;-77
2023/09/20 02:33:32;;;;;;;4.72;2.47;;;;;;;15.49;84.75;100605.00;5067182;28;20028;-76
2023/09/20 02:35:58;;;;;;;5.63;2.30;;;;;;;15.50;84.74;100604.81;5068104;28;20461;-76
2023/09/20 02:38:23;;;;;;;3.90;2.22;;;;;;;15.50;84.67;100602.09;5070384;28;20058;-77
2023/09/20 02:40:50;;;;;;;5.82;2.10;;;;;;;15.51;84.71;100608.31;5069273;28;20025;-77
2023/09/20 02:43:16;;;;;;;5.55;2.20;;;;;;;15.46;85.08;100606.31;5048412;28;20036;-79
2023/09/20 02:45:45;;;;;;;5.43;2.30;;;;;;;15.46;85.14;100606.31;5069580;28;20025;-77
2023/09/20 02:48:12;;;;;;;8.13;2.55;;;;;;;15.48;85.00;100609.63;5070939;28;20054;-78
2023/09/20 02:50:41;;;;;;;3.85;2.20;;;;;;;15.48;85.13;100604.22;5071355;28;20013;-77
2023/09/20 02:53:09;;;;;;;3.00;2.20;;;;;;;15.45;85.47;100610.91;5068198;28;20149;-78
2023/09/20 02:55:35;;;;;;;6.88;2.22;;;;;;;15.44;85.45;100598.41;5072665;28;20016;-77
2023/09/20 02:58:00;;;;;;;6.47;2.42;;;;;;;15.42;85.60;100597.00;5070468;28;20119;-77
2023/09/20 03:00:31;;;;;;;5.03;2.22;;;;;;;15.45;85.45;100591.09;5069459;28;20334;-77
2023/09/20 03:02:57;;;;;;;5.95;2.50;;;;;;;15.45;85.82;100596.53;5072103;28;20147;-77
2023/09/20 03:05:33;;;;;;;5.00;1.90;;;;;;;15.45;85.89;100591.91;5070446;28;20040;-78
2023/09/20 03:08:11;;;;;;;4.20;1.90;;;;;;;15.44;85.87;100595.69;5066745;28;20045;-76
2023/09/20 03:10:38;;;;;;;5.15;2.65;;;;;;;15.46;85.80;100587.34;5052924;28;20115;-77
2023/09/20 03:13:05;;;;;;;7.32;2.40;;;;;;;15.41;86.22;100576.34;5070168;28;20048;-76
2023/09/20 03:15:32;;;;;;;4.30;1.95;;;;;;;15.39;86.37;100579.31;5068996;28;20090;-77
2023/09/20 03:18:02;;;;;;;4.07;2.10;;;;;;;15.36;86.54;100578.94;5070972;28;20051;-77
2023/09/20 03:20:32;;;;;;;4.97;2.13;;;;;;;15.29;87.10;100581.78;5071994;28;20079;-77
2023/09/20 03:22:58;;;;;;;5.57;2.30;;;;;;;15.35;87.07;100586.28;5071758;28;20120;-77
2023/09/20 03:25:24;;;;;;;5.93;2.28;;;;;;;15.34;87.10;100575.66;5073878;28;20036;-77
2023/09/20 03:27:53;;;;;;;5.45;2.35;;;;;;;15.30;87.21;100578.84;5072457;28;20040;-77
2023/09/20 03:30:20;;;;;;;6.00;3.00;;;;;;;15.27;87.82;100575.75;5075954;28;20078;-76
2023/09/20 03:32:46;;;;;;;6.47;2.38;;;;;;;15.25;87.97;100576.00;5074316;28;20032;-76
2023/09/20 03:35:16;;;;;;;6.32;2.88;;;;;;;15.24;88.18;100571.66;5094743;28;20032;-76
2023/09/20 03:37:43;;;;;;;5.68;2.20;;;;;;;15.21;88.17;100568.59;5077766;28;20125;-77
2023/09/20 03:40:10;;;;;;;6.18;2.45;;;;;;;15.24;88.30;100554.56;5064735;28;20473;-77
2023/09/20 03:42:40;;;;;;;3.42;2.10;;;;;;;15.24;88.26;100563.50;5070933;28;20043;-77
2023/09/20 03:45:14;;;;;;;3.95;2.00;;;;;;;15.22;88.50;100556.69;5067755;28;20041;-77
2023/09/20 03:47:41;;;;;;;6.13;2.38;;;;;;;15.23;88.54;100553.72;5069963;28;20468;-77
2023/09/20 03:50:09;;;;;;;6.30;2.40;;;;;;;15.25;88.25;100567.88;5069979;28;20112;-76
2023/09/20 03:52:39;;;;;;;5.25;2.40;;;;;;;15.28;88.38;100561.97;5072805;28;20099;-77
2023/09/20 03:55:08;;;;;;;6.25;2.40;;;;;;;15.29;88.40;100557.38;5069846;28;20028;-77
2023/09/20 03:57:40;;;;;;;8.02;2.28;;;;;;;15.30;88.39;100554.44;5071309;28;20029;-77
2023/09/20 04:00:07;;;;;;;6.03;2.30;;;;;;;15.35;88.35;100561.84;5073692;28;20075;-77
2023/09/20 04:02:32;;;;;;;6.82;2.40;;;;;;;15.31;88.75;100553.38;5075097;28;20460;-77
2023/09/20 04:05:00;;;;;;;7.35;2.20;;;;;;;15.33;88.48;100552.31;5071934;28;20032;-77
2023/09/20 04:07:26;;;;;;;5.00;2.22;;;;;;;15.37;88.48;100564.31;5053853;28;20060;-77
2023/09/20 04:09:52;;;;;;;5.43;2.20;;;;;;;15.37;88.53;100564.31;5071992;28;20021;-78
2023/09/20 04:12:18;;;;;;;4.63;2.50;;;;;;;15.37;88.62;100557.03;5072111;28;20133;-78
2023/09/20 04:14:46;;;;;;;4.32;2.22;;;;;;;15.39;88.65;100567.63;5067676;28;20128;-78
2023/09/20 04:17:12;;;;;;;5.82;2.33;;;;;;;15.35;88.98;100550.19;5071854;28;20114;-76
2023/09/20 04:19:42;;;;;;;5.50;2.55;;;;;;;15.35;89.08;100550.19;5071408;28;20040;-74
2023/09/20 04:22:07;;;;;;;3.85;2.45;;;;;;;15.33;89.18;100546.91;5062406;28;20416;-76
2023/09/20 04:24:34;;;;;;;5.65;2.22;;;;;;;15.26;89.36;100550.53;5067069;28;20039;-76
2023/09/20 04:27:02;;;;;;;9.27;2.42;;;;;;;15.31;89.37;100533.56;5065215;28;20058;-76
2023/09/20 04:29:28;;;;;;;4.05;2.30;;;;;;;15.33;89.24;100539.56;5063978;28;20029;-76
2023/09/20 04:31:55;;;;;;;5.85;2.40;;;;;;;15.36;89.37;100546.41;5066736;28;20028;-76
2023/09/20 04:34:21;;;;;;;3.83;2.20;;;;;;;15.35;89.24;100537.44;5053907;28;20094;-76
2023/09/20 04:36:46;;;;;;;4.80;2.17;;;;;;;15.38;89.22;100544.28;5667392;22;20004;-77
2023/09/20 04:39:12;;;;;;;3.50;2.20;;;;;;;15.37;89.21;100534.50;5030708;28;20033;-76
2023/09/20 04:41:38;;;;;;;5.45;2.40;;;;;;;15.37;89.42;100545.34;5026856;28;20037;-76
2023/09/20 04:44:07;;;;;;;7.30;2.35;;;;;;;15.32;89.34;100543.34;5027000;28;20116;-78
2023/09/20 04:46:34;;;;;;;3.85;2.30;;;;;;;15.37;89.45;100529.06;5026579;28;20038;-75
2023/09/20 04:48:59;;;;;;;7.05;2.15;;;;;;;15.35;89.58;100539.34;5024431;28;20021;-75
2023/09/20 04:51:25;;;;;;;3.67;2.20;;;;;;;15.33;89.58;100515.16;5028909;28;20024;-75
2023/09/20 04:53:50;;;;;;;4.07;2.20;;;;;;;15.34;89.80;100524.94;5022188;28;20037;-75
2023/09/20 04:56:16;;;;;;;7.80;2.55;;;;;;;15.31;89.95;100531.69;5027442;28;20032;-75
2023/09/20 04:58:41;;;;;;;5.35;2.42;;;;;;;15.29;90.52;100525.66;5024705;28;20029;-75
2023/09/20 05:01:13;;;;;;;4.90;2.20;;;;;;;15.31;89.85;100528.97;5028198;28;20128;-75
2023/09/20 05:03:39;;;;;;;3.85;2.17;;;;;;;15.29;89.77;100525.66;5030338;28;20079;-73
2023/09/20 05:06:05;;;;;;;6.80;2.55;;;;;;;15.30;89.82;100527.31;5023746;28;20120;-76
2023/09/20 05:08:31;;;;;;;6.72;2.50;;;;;;;15.25;90.20;100548.88;5023212;28;20052;-77
2023/09/20 05:10:59;;;;;;;4.90;2.10;;;;;;;15.24;90.42;100558.09;5005105;28;20026;-77
2023/09/20 05:13:25;;;;;;;5.97;2.38;;;;;;;15.25;90.23;100550.78;5019289;28;20038;-76
2023/09/20 05:15:50;;;;;;;5.28;2.70;;;;;;;15.26;90.04;100547.03;5035914;28;20037;-77
2023/09/20 05:18:16;;;;;;;5.70;2.40;;;;;;;15.26;90.35;100541.59;5028470;28;20026;-77
2023/09/20 05:20:47;;;;;;;4.88;2.28;;;;;;;15.25;90.23;100548.06;5030092;28;20034;-77
2023/09/20 05:23:13;;;;;;;5.53;2.45;;;;;;;15.26;90.21;100550.53;5021630;28;20029;-76
2023/09/20 05:25:39;;;;;;;5.10;2.45;;;;;;;15.27;90.10;100554.91;5028203;28;20038;-77
2023/09/20 05:28:05;;;;;;;6.40;2.40;;;;;;;15.31;90.06;100563.38;5023367;28;20034;-77
2023/09/20 05:30:31;;;;;;;8.02;2.45;;;;;;;15.28;90.13;100561.13;5026770;28;20049;-77
2023/09/20 05:32:56;;;;;;;6.28;2.47;;;;;;;15.30;90.20;100553.59;5030511;28;20053;-77
2023/09/20 05:35:25;;;;;;;5.50;2.35;;;;;;;15.29;90.30;100554.66;5019190;28;20049;-77
2023/09/20 05:37:51;;;;;;;5.38;2.50;;;;;;;15.30;90.24;100559.88;5026429;28;20049;-77
2023/09/20 05:40:19;;;;;;;5.28;2.60;;;;;;;15.30;90.73;100556.31;5020722;28;20385;-77
2023/09/20 05:42:50;;;;;;;4.63;2.30;;;;;;;15.36;90.18;100547.25;5027148;28;20029;-77
2023/09/20 05:45:15;;;;;;;8.90;2.50;;;;;;;15.44;90.07;100554.19;5006764;28;20033;-76
2023/09/20 05:47:41;;;;;;;6.15;2.35;;;;;;;15.46;89.89;100552.06;5027968;28;20040;-76
2023/09/20 05:50:13;;;;;;;8.38;2.55;;;;;;;15.52;89.48;100548.41;5035000;28;20029;-76
2023/09/20 05:52:43;;;;;;;5.60;2.30;;;;;;;15.58;89.13;100550.16;5030616;28;20093;-77
2023/09/20 05:55:13;;;;;;;6.63;2.40;;;;;;;15.59;89.21;100546.38;5029241;28;20033;-77
2023/09/20 05:57:42;;;;;;;7.25;2.70;;;;;;;15.72;88.82;100539.03;5033163;28;20113;-77
2023/09/20 06:00:16;;;;;;;5.47;2.35;;;;;;;15.84;87.96;100534.44;5031587;28;20025;-76
2023/09/20 06:02:42;;;;;;;2.83;2.05;;;;;;;15.99;86.94;100527.69;5026523;28;20552;-77
2023/09/20 06:05:09;;;;;;;5.38;2.35;;;;;;;16.06;86.35;100533.81;5214015;23;20057;-77
2023/09/20 06:07:35;;;;;;;7.53;2.60;;;;;;;16.27;85.65;100542.34;5045589;28;20029;-77
2023/09/20 06:10:03;;;;;;;4.88;2.40;;;;;;;16.57;84.18;100530.41;5047962;28;20025;-77
2023/09/20 06:12:29;;;;;;;7.20;2.30;;;;;;;16.88;82.52;100529.00;5041426;28;20116;-77
2023/09/20 06:14:57;;;;;;;4.20;1.92;;;;;;;17.40;79.93;100530.63;5050349;28;20571;-77
2023/09/20 06:17:32;;;;;;;5.20;2.40;;;;;;;18.17;76.61;100521.81;5052004;28;20039;-77
2023/09/20 06:19:58;;;;;;;5.80;2.47;;;;;;;18.71;73.52;100537.31;5050777;28;20071;-76
2023/09/20 06:22:28;;;;;;;3.60;2.33;;;;;;;19.19;71.76;100536.59;5043469;28;20085;-77
2023/09/20 06:24:53;;;;;;;7.50;2.63;;;;;;;19.73;69.41;100540.19;5039472;28;20389;-77
2023/09/20 06:27:21;;;;;;;5.63;2.10;;;;;;;20.14;67.07;100524.78;5052647;28;20025;-77
2023/09/20 06:29:47;;;;;;;5.93;2.13;;;;;;;19.97;67.44;100530.47;5047821;28;20035;-77
2023/09/20 06:32:15;;;;;;;4.75;2.28;;;;;;;20.10;66.96;100526.44;5048223;28;20029;-77
2023/09/20 06:34:41;;;;;;;4.32;2.10;;;;;;;19.73;68.79;100537.44;5043035;28;20017;-77
2023/09/20 06:37:06;;;;;;;6.75;2.20;;;;;;;19.77;67.94;100535.84;5048695;28;20030;-77
2023/09/20 06:39:31;;;;;;;7.00;2.70;;;;;;;19.43;70.02;100534.28;5043451;28;20026;-77
2023/09/20 06:41:57;;;;;;;5.32;2.40;;;;;;;19.32;70.46;100529.88;5039454;28;20047;-77
2023/09/20 06:44:23;;;;;;;5.10;2.08;;;;;;;19.70;68.98;100541.53;5038547;28;20033;-77
2023/09/20 06:46:49;;;;;;;5.05;2.42;;;;;;;20.14;67.08;100530.25;5042709;28;20071;-76
2023/09/20 06:49:15;;;;;;;5.10;2.10;;;;;;;20.45;66.43;100529.50;5051647;28;20040;-77
2023/09/20 06:51:43;;;;;;;3.47;2.08;;;;;;;20.67;65.29;100523.75;5043668;28;20434;-77
2023/09/20 06:54:10;;;;;;;4.38;2.30;;;;;;;20.95;63.82;100521.63;5046362;28;20112;-77
2023/09/20 06:56:37;;;;;;;6.95;2.08;;;;;;;20.99;63.42;100511.78;5042289;28;20086;-76
2023/09/20 06:59:03;;;;;;;5.38;2.20;;;;;;;21.03;63.74;100532.00;5050200;28;20051;-77
2023/09/20 07:01:29;;;;;;;4.35;2.13;;;;;;;20.52;65.61;100534.69;5044951;28;20025;-77
2023/09/20 07:03:54;;;;;;;5.50;2.53;;;;;;;21.31;62.68;100535.25;5020141;28;20102;-77
2023/09/20 07:06:19;;;;;;;6.10;2.50;;;;;;;21.12;63.34;100525.97;5043936;28;20041;-77
2023/09/20 07:08:45;;;;;;;5.75;2.33;;;;;;;21.47;62.12;100525.06;5050809;28;20444;-77
2023/09/20 07:11:15;;;;;;;4.40;2.25;;;;;;;21.43;62.05;100532.22;5050043;28;20051;-77
2023/09/20 07:13:40;;;;;;;6.00;2.40;;;;;;;21.32;62.61;100506.78;5049979;28;20389;-77
2023/09/20 07:16:06;;;;;;;4.35;2.30;;;;;;;21.36;62.64;100532.47;5046130;28;20468;-77
2023/09/20 07:18:36;;;;;;;4.40;2.30;;;;;;;22.05;60.58;100521.00;5043764;28;20043;-77
2023/09/20 07:21:02;;;;;;;5.18;2.20;;;;;;;22.62;58.72;100525.31;5044233;28;20445;-77
2023/09/20 07:23:29;;;;;;;6.10;2.45;;;;;;;23.12;56.55;100527.91;5041994;28;20021;-77
2023/09/20 07:25:55;;;;;;;5.25;2.13;;;;;;;23.55;56.23;100538.22;5033354;28;20029;-77
2023/09/20 07:28:24;;;;;;;3.88;2.20;;;;;;;23.91;54.15;100537.78;5034268;28;20033;-77
2023/09/20 07:30:49;;;;;;;4.35;2.20;;;;;;;24.18;53.71;100534.41;5040623;28;20021;-77
2023/09/20 07:33:23;;;;;;;8.60;2.17;;;;;;;23.65;54.19;100515.28;5040651;28;20034;-77
2023/09/20 07:35:58;;;;;;;5.68;2.25;;;;;;;23.49;55.54;100520.97;5051516;28;20024;-77
2023/09/20 07:40:50;;;;;;;3.35;2.28;;;;;;;23.20;56.01;100515.47;5051970;28;20072;-77
2023/09/20 07:43:18;;;;;;;4.93;2.30;;;;;;;22.75;57.73;100513.72;5051031;28;20037;-77
2023/09/20 07:45:44;;;;;;;3.60;2.20;;;;;;;22.35;58.81;100515.63;5055079;28;20445;-77
2023/09/20 07:48:21;;;;;;;3.75;2.60;;;;;;;21.96;60.06;100515.31;5043071;28;20342;-76
2023/09/20 07:50:50;;;;;;;6.88;2.42;;;;;;;21.61;61.77;100510.81;5047944;28;20085;-77
2023/09/20 07:53:16;;;;;;;4.88;2.20;;;;;;;21.69;61.43;100523.91;5035868;28;20117;-77
2023/09/20 07:55:55;;;;;;;4.00;2.10;;;;;;;21.35;63.34;100511.69;5060486;28;20036;-77
2023/09/20 07:58:23;;;;;;;5.32;2.40;;;;;;;21.74;61.68;100498.41;5062440;28;20040;-77
2023/09/20 08:00:51;;;;;;;5.80;2.50;;;;;;;21.62;61.51;100496.03;5049773;28;20171;-77
2023/09/20 08:03:18;;;;;;;4.72;2.47;;;;;;;21.34;63.28;100512.78;5041741;28;20029;-77
2023/09/20 08:05:44;;;;;;;4.90;2.13;;;;;;;21.69;62.15;100507.50;5049742;28;20095;-77
2023/09/20 08:08:10;;;;;;;4.78;2.42;;;;;;;21.99;61.48;100496.66;5042506;28;20089;-77
2023/09/20 08:10:36;;;;;;;3.58;2.00;;;;;;;22.17;60.50;100501.50;5034174;28;20099;-77
2023/09/20 08:13:03;;;;;;;5.95;2.60;;;;;;;22.63;58.80;100508.59;5041529;28;20135;-77
2023/09/20 08:15:32;;;;;;;5.10;2.50;;;;;;;22.73;58.85;100504.13;5047736;28;20032;-77
2023/09/20 08:20:42;;;;;;;4.20;2.47;;;;;;;21.83;61.04;100506.88;5047440;28;20048;-77
2023/09/20 09:01:37;;;;;;;3.83;2.63;;;;;;;20.47;68.22;100523.78;5033256;28;20055;-77
2023/09/20 09:04:04;;;;;;;5.15;2.20;;;;;;;20.58;67.54;100522.69;5043112;28;20364;-77
2023/09/20 09:06:30;;;;;;;4.07;2.30;;;;;;;21.21;64.90;100524.28;5050195;28;20033;-77
2023/09/20 09:08:57;;;;;;;4.70;2.67;;;;;;;21.60;63.80;100522.84;5046404;28;20044;-77
2023/09/20 09:11:24;;;;;;;4.93;2.33;;;;;;;21.58;64.00;100534.06;5029300;28;20132;-77
2023/09/20 09:13:50;;;;;;;5.80;2.63;;;;;;;21.50;62.55;100524.50;5042819;28;20026;-77
2023/09/20 09:16:18;;;;;;;5.38;2.50;;;;;;;21.10;63.62;100539.09;5049124;28;20079;-77
2023/09/20 09:18:44;;;;;;;5.82;2.70;;;;;;;20.67;64.21;100534.69;5030807;28;20443;-76
2023/09/20 09:21:12;;;;;;;6.55;2.58;;;;;;;20.68;64.61;100506.25;5043169;28;20147;-77
2023/09/20 09:23:44;;;;;;;5.03;2.60;;;;;;;20.68;64.87;100530.06;5025206;28;20538;-76
2023/09/20 09:26:10;;;;;;;7.70;2.78;;;;;;;20.58;65.54;100539.09;5041646;28;20128;-77
2023/09/20 09:28:37;;;;;;;5.50;2.58;;;;;;;20.82;65.79;100538.59;5045604;28;20044;-77
2023/09/20 09:31:03;;;;;;;5.03;2.50;;;;;;;21.12;64.51;100537.72;5027177;28;20131;-77
2023/09/20 09:33:29;;;;;;;6.95;2.70;;;;;;;21.09;64.59;100529.25;5041412;28;20033;-77
2023/09/20 09:35:54;;;;;;;7.53;2.60;;;;;;;20.77;64.04;100511.22;5023991;28;20021;-78
2023/09/20 09:38:21;;;;;;;4.10;2.28;;;;;;;20.28;65.72;100527.03;5030389;28;20029;-78
2023/09/20 09:40:55;;;;;;;5.32;2.33;;;;;;;20.02;67.43;100540.59;5052447;28;20044;-77
2023/09/20 09:43:23;;;;;;;5.65;2.70;;;;;;;20.11;66.79;100536.28;5047270;28;20029;-78
2023/09/20 09:45:49;;;;;;;3.72;2.60;;;;;;;20.11;67.53;100508.94;5060144;28;20085;-78
2023/09/20 09:48:16;;;;;;;6.15;2.47;;;;;;;19.88;67.80;100534.81;5041627;28;20299;-78
2023/09/20 09:50:41;;;;;;;4.63;2.63;;;;;;;20.33;66.48;100520.72;5022698;28;20442;-78
2023/09/20 09:53:08;;;;;;;5.05;2.47;;;;;;;20.54;65.89;100516.09;5020412;28;20028;-78
2023/09/20 09:55:33;;;;;;;7.97;2.88;;;;;;;20.65;66.13;100517.75;5026189;28;20057;-77
2023/09/20 09:58:04;;;;;;;7.10;2.80;;;;;;;20.78;65.28;100521.06;5026056;28;20060;-78
2023/09/20 10:00:29;;;;;;;6.38;2.65;;;;;;;21.17;64.03;100517.75;5023023;28;20025;-78
2023/09/20 10:02:55;;;;;;;5.07;2.80;;;;;;;21.38;62.59;100513.06;5026603;28;20037;-78
2023/09/20 10:05:20;;;;;;;7.00;2.45;;;;;;;21.63;62.18;100498.47;5011661;28;20457;-78
2023/09/20 10:07:46;;;;;;;5.35;3.15;;;;;;;21.60;61.95;100515.47;5022903;28;20087;-78
2023/09/20 10:10:16;;;;;;;4.70;2.80;;;;;;;21.72;61.56;100517.88;5031205;28;20126;-78
2023/09/20 10:12:44;;;;;;;4.47;2.75;;;;;;;21.53;61.83;100514.94;5046688;28;20037;-78
2023/09/20 10:15:11;;;;;;;3.78;2.75;;;;;;;21.86;60.89;100512.63;5048172;28;20061;-78
2023/09/20 10:17:44;;;;;;;6.95;2.97;;;;;;;21.94;60.67;100494.78;5048190;28;20036;-78
2023/09/20 10:20:15;;;;;;;6.13;2.78;;;;;;;22.04;61.58;100504.88;5051772;28;20036;-78
2023/09/20 10:22:45;;;;;;;6.28;2.50;;;;;;;22.94;58.88;100504.78;5052816;28;20079;-78
2023/09/20 10:25:34;;;;;;;4.70;2.83;;;;;;;22.89;58.02;100499.31;5035560;28;20036;-78
2023/09/20 10:28:08;;;;;;;3.80;2.38;;;;;;;23.11;57.52;100513.38;5035967;28;20052;-78
2023/09/20 10:30:34;;;;;;;3.72;2.45;;;;;;;22.93;58.67;100497.66;5041104;28;20025;-78
2023/09/20 10:33:03;;;;;;;3.60;2.25;;;;;;;22.93;57.53;100512.19;5026340;28;20045;-78
2023/09/20 10:35:33;;;;;;;5.13;2.30;;;;;;;22.62;58.99;100511.63;5014338;28;20041;-78
2023/09/20 10:38:09;;;;;;;3.88;2.40;;;;;;;22.25;61.05;100498.13;5053176;28;20039;-78
2023/09/20 10:40:48;;;;;;;3.28;2.20;;;;;;;21.99;60.71;100488.44;5042738;28;20052;-78
2023/09/20 10:43:20;;;;;;;4.15;2.25;;;;;;;21.84;60.69;100479.22;5051441;28;20104;-78
2023/09/20 10:45:50;;;;;;;4.80;2.40;;;;;;;21.73;61.04;100472.13;5052315;28;20041;-78
2023/09/20 10:48:27;;;;;;;3.00;2.03;;;;;;;21.67;62.44;100489.69;5043938;28;20029;-78
2023/09/20 10:50:54;;;;;;;2.67;2.00;;;;;;;21.55;62.21;100484.50;5024495;28;20025;-78
2023/09/20 10:53:22;;;;;;;4.65;2.42;;;;;;;21.61;62.15;100495.19;5043505;28;20029;-78
2023/09/20 10:55:49;;;;;;;4.50;2.22;;;;;;;21.84;62.09;100492.06;5021083;28;20108;-78
2023/09/20 10:58:17;;;;;;;4.65;2.30;;;;;;;22.05;60.95;100487.31;5041025;28;20041;-79
2023/09/20 11:00:44;;;;;;;3.70;2.13;;;;;;;21.93;61.28;100498.63;5041157;28;20030;-78
2023/09/20 11:03:11;;;;;;;3.08;2.40;;;;;;;21.86;61.85;100482.50;5046851;28;20025;-78
2023/09/20 11:05:36;;;;;;;3.38;2.00;;;;;;;22.09;61.54;100496.59;5043493;28;20045;-78
2023/09/20 11:08:06;;;;;;;2.17;1.83;;;;;;;22.36;61.00;100498.88;5051182;28;20032;-78
2023/09/20 11:10:32;;;;;;;3.95;2.00;;;;;;;22.37;60.36;100488.75;5047350;28;20462;-78
2023/09/20 11:12:58;;;;;;;2.53;1.90;;;;;;;22.35;59.87;100486.28;5033645;28;20075;-78
2023/09/20 11:15:23;;;;;;;4.40;1.88;;;;;;;22.44;59.56;100492.00;5042284;28;20129;-78
2023/09/20 11:17:49;;;;;;;3.30;1.70;;;;;;;22.60;58.93;100484.47;5040612;28;20453;-78
2023/09/20 11:20:14;;;;;;;2.88;2.13;;;;;;;23.02;58.61;100484.91;5051915;28;20036;-78
2023/09/20 11:22:41;;;;;;;4.13;1.80;;;;;;;23.31;56.63;100473.09;5048864;28;20477;-78
2023/09/20 11:25:07;;;;;;;3.60;1.80;;;;;;;23.25;56.50;100477.84;5035609;28;20047;-77
2023/09/20 11:27:34;;;;;;;3.80;1.80;;;;;;;23.23;56.85;100473.75;5051659;28;20385;-78
2023/09/20 11:30:10;;;;;;;2.20;1.67;;;;;;;23.30;56.40;100461.31;5003884;28;20095;-78
2023/09/20 11:32:39;;;;;;;4.18;1.50;;;;;;;22.81;57.31;100465.09;5049581;28;20132;-78
2023/09/20 11:35:06;;;;;;;3.38;1.73;;;;;;;22.65;57.96;100467.16;5042751;28;20090;-77
2023/09/20 11:37:32;;;;;;;2.40;1.58;;;;;;;23.59;56.11;100462.34;5041591;28;20026;-78
2023/09/20 11:39:59;;;;;;;4.07;1.90;;;;;;;24.20;53.99;100462.59;5047951;28;20365;-78
2023/09/20 11:42:30;;;;;;;3.30;1.52;;;;;;;23.65;54.65;100466.63;5030503;28;20021;-78
2023/09/20 11:45:03;;;;;;;2.42;1.40;;;;;;;23.56;55.79;100449.19;5049570;28;20501;-78
2023/09/20 11:47:33;;;;;;;2.33;1.38;;;;;;;24.21;53.44;100444.97;5046446;28;20030;-78
2023/09/20 11:49:59;;;;;;;4.80;1.70;;;;;;;24.10;53.96;100416.00;5036358;28;20040;-78
2023/09/20 11:52:25;;;;;;;3.58;1.92;;;;;;;24.81;52.10;100432.44;5048765;28;20014;-79
2023/09/20 11:54:53;;;;;;;1.92;1.45;;;;;;;25.21;50.66;100443.81;5038025;28;20025;-78
2023/09/20 11:57:19;;;;;;;2.33;1.40;;;;;;;25.23;50.30;100430.53;5024410;28;20057;-78
2023/09/20 11:59:45;;;;;;;3.92;1.52;;;;;;;25.13;50.15;100439.00;5017264;28;20031;-79
2023/09/20 12:02:14;;;;;;;1.92;1.40;;;;;;;25.64;49.15;100439.91;5042681;28;20037;-78
2023/09/20 12:04:39;;;;;;;2.28;1.50;;;;;;;26.33;46.95;100443.56;5052077;28;20115;-77
2023/09/20 12:07:08;;;;;;;2.22;1.40;;;;;;;25.36;49.20;100437.16;5040091;28;20625;-77
2023/09/20 12:09:34;;;;;;;1.95;1.25;;;;;;;25.23;49.55;100414.00;5043660;28;20466;-78